.
WxDataArchive / Data Records for 2009-05-30
2009-05-29 May 2009 2009-05-31

Data Records for Saturday, 30 May 2009

Time	Temp	Chill	HIndex	Humid	Dewpt	 Wind 	HiWind	WindDir	Rain 	Barom 
-----	----	-----	------	-----	-----	------	------	-------	-----	----- 
00:00	53.1	53.1	53.1	82	47.8	0	0	---	0.00	29.910 
00:05	52.8	52.8	52.8	83	47.8	0	0	---	0.00	29.910 
00:10	52.6	52.6	52.6	83	47.6	0	0	---	0.00	29.910 
00:15	52.3	52.3	52.3	84	47.6	0	0	---	0.00	29.910 
00:20	52.2	52.2	52.2	84	47.5	0	0	---	0.00	29.910 
00:25	52.0	52.0	52.0	85	47.6	0	0	---	0.00	29.910 
00:30	52.0	52.0	52.0	85	47.6	0	0	---	0.00	29.916 
00:35	51.9	51.9	51.9	85	47.5	0	0	---	0.00	29.916 
00:40	51.9	51.9	51.9	85	47.5	0	0	---	0.00	29.916 
00:45	51.7	51.7	51.7	85	47.3	0	0	---	0.00	29.919 
00:50	51.6	51.6	51.6	85	47.2	0	0	---	0.00	29.919 
00:55	51.4	51.4	51.4	85	47.0	0	0	---	0.00	29.919 
01:00	51.3	51.3	51.3	85	46.9	0	0	---	0.00	29.917 
01:05	51.1	51.1	51.1	86	47.1	0	0	---	0.00	29.917 
01:10	51.0	51.0	51.0	86	47.0	0	0	---	0.00	29.917 
01:15	51.0	51.0	51.0	87	47.3	0	0	---	0.00	29.917 
01:20	50.8	50.8	50.8	87	47.1	0	0	---	0.00	29.917 
01:25	50.8	50.8	50.8	87	47.1	0	0	---	0.00	29.917 
01:30	50.7	50.7	50.7	88	47.3	0	0	---	0.00	29.918 
01:35	50.5	50.5	50.5	88	47.1	0	0	---	0.00	29.918 
01:40	50.5	50.5	50.5	88	47.1	0	0	---	0.00	29.918 
01:45	50.5	50.5	50.5	88	47.1	0	0	---	0.00	29.918 
01:50	50.5	50.5	50.5	88	47.1	0	0	---	0.00	29.918 
01:55	50.5	50.5	50.5	88	47.1	0	0	---	0.00	29.918 
02:00	50.4	50.4	50.4	88	47.0	0	0	---	0.00	29.918 
02:05	50.4	50.4	50.4	88	47.0	0	0	---	0.00	29.918 
02:10	50.2	50.2	50.2	89	47.1	0	0	---	0.00	29.918 
02:15	50.1	50.1	50.1	89	47.0	0	0	---	0.00	29.914 
02:20	50.1	50.1	50.1	89	47.0	0	0	---	0.00	29.914 
02:25	49.9	49.9	49.9	89	46.8	0	0	---	0.00	29.914 
02:30	49.8	49.8	49.8	89	46.7	0	0	---	0.00	29.910 
02:35	49.6	49.6	49.6	89	46.5	0	0	---	0.00	29.910 
02:40	49.6	49.6	49.6	90	46.8	0	0	---	0.00	29.910 
02:45	49.5	49.5	49.5	90	46.7	0	0	---	0.00	29.908 
02:50	49.4	49.4	49.4	90	46.6	0	0	---	0.00	29.908 
02:55	49.2	49.2	49.2	90	46.4	0	0	---	0.00	29.908 
03:00	49.1	49.1	49.1	90	46.3	0	0	---	0.00	29.904 
03:05	48.9	48.9	48.9	90	46.1	0	0	---	0.00	29.904 
03:10	48.8	48.8	48.8	90	46.0	0	0	---	0.00	29.904 
03:15	48.6	48.6	48.6	91	46.1	0	0	---	0.00	29.899 
03:20	48.5	48.5	48.5	91	46.0	0	0	---	0.00	29.899 
03:25	48.5	48.5	48.5	91	46.0	0	0	---	0.00	29.899 
03:30	48.3	48.3	48.3	91	45.8	0	0	---	0.00	29.906 
03:35	48.3	48.3	48.3	92	46.1	0	0	---	0.00	29.906 
03:40	48.2	48.2	48.2	92	46.0	0	0	---	0.00	29.906 
03:45	48.0	48.0	48.0	92	45.8	0	0	---	0.00	29.904 
03:50	48.0	48.0	48.0	92	45.8	0	0	---	0.00	29.904 
03:55	48.0	48.0	48.0	92	45.8	0	0	---	0.00	29.904 
04:00	48.0	48.0	48.0	92	45.8	0	0	---	0.00	29.904 
04:05	48.0	48.0	48.0	92	45.8	0	0	---	0.00	29.904 
04:10	48.0	48.0	48.0	92	45.8	0	0	---	0.00	29.904 
04:15	47.9	47.9	47.9	92	45.7	0	0	---	0.00	29.903 
04:20	47.9	47.9	47.9	92	45.7	0	0	---	0.00	29.903 
04:25	47.7	47.7	47.7	92	45.5	0	0	---	0.00	29.903 
04:30	47.6	47.6	47.6	92	45.4	0	0	---	0.00	29.900 
04:35	47.4	47.4	47.4	93	45.5	0	0	---	0.00	29.900 
04:40	47.3	47.3	47.3	93	45.4	0	0	---	0.00	29.900 
04:45	47.3	47.3	47.3	93	45.4	0	0	---	0.00	29.895 
04:50	47.1	47.1	47.1	93	45.2	0	0	---	0.00	29.895 
04:55	47.1	47.1	47.1	93	45.2	0	0	---	0.00	29.895 
05:00	47.0	47.0	47.0	93	45.1	0	0	---	0.00	29.897 
05:05	46.8	46.8	46.8	93	44.9	0	0	---	0.00	29.897 
05:10	46.8	46.8	46.8	93	44.9	0	0	---	0.00	29.897 
05:15	46.7	46.7	46.7	93	44.8	0	0	---	0.00	29.893 
05:20	46.5	46.5	46.5	93	44.6	0	0	---	0.00	29.893 
05:25	46.5	46.5	46.5	93	44.6	0	0	---	0.00	29.893 
05:30	46.4	46.4	46.4	93	44.5	0	0	---	0.00	29.893 
05:35	46.4	46.4	46.4	93	44.5	0	0	---	0.00	29.893 
05:40	46.2	46.2	46.2	93	44.3	0	0	---	0.00	29.893 
05:45	46.2	46.2	46.2	93	44.3	0	0	---	0.00	29.889 
05:50	46.2	46.2	46.2	94	44.6	0	0	---	0.00	29.889 
05:55	46.2	46.2	46.2	94	44.6	0	0	---	0.00	29.889 
06:00	46.2	46.2	46.2	94	44.6	0	0	---	0.00	29.887 
06:05	46.2	46.2	46.2	94	44.6	0	0	---	0.00	29.887 
06:10	46.2	46.2	46.2	94	44.6	0	0	---	0.00	29.887 
06:15	46.2	46.2	46.2	94	44.6	0	0	---	0.00	29.889 
06:20	46.2	46.2	46.2	94	44.6	0	0	---	0.00	29.889 
06:25	46.2	46.2	46.2	94	44.6	0	0	---	0.00	29.889 
06:30	46.2	46.2	46.2	94	44.6	0	0	---	0.00	29.886 
06:35	46.4	46.4	46.4	94	44.8	0	0	---	0.00	29.886 
06:40	46.7	46.7	46.7	95	45.3	0	0	---	0.00	29.886 
06:45	46.8	46.8	46.8	95	45.4	0	0	---	0.00	29.885 
06:50	47.0	47.0	47.0	95	45.6	0	0	---	0.00	29.885 
06:55	47.3	47.3	47.3	95	45.9	0	0	---	0.00	29.885 
07:00	47.4	47.4	47.4	95	46.0	0	0	---	0.00	29.892 
07:05	47.6	47.6	47.6	95	46.2	0	0	---	0.00	29.892 
07:10	48.0	48.0	48.0	95	46.6	0	0	---	0.00	29.892 
07:15	48.5	48.5	48.5	96	47.4	0	0	---	0.00	29.886 
07:20	48.9	48.9	48.9	95	47.5	0	0	---	0.00	29.886 
07:25	49.8	49.8	49.8	96	48.7	0	0	---	0.00	29.886 
07:30	50.4	50.4	50.4	96	49.3	0	0	---	0.00	29.886 
07:35	51.0	51.0	51.0	95	49.6	0	0	---	0.00	29.886 
07:40	51.6	51.6	51.6	95	50.2	0	0	---	0.00	29.886 
07:45	52.3	52.3	52.3	95	50.9	0	1	315	0.00	29.892 
07:50	53.3	53.3	53.3	94	51.6	0	1	315	0.00	29.892 
07:55	54.2	54.2	54.2	92	51.9	0	1	315	0.00	29.892 
08:00	55.0	55.0	55.0	90	52.1	0	1	315	0.00	29.886 
08:05	55.9	55.9	55.9	87	52.1	0	1	315	0.00	29.886 
08:10	56.5	56.5	56.5	82	51.1	0	1	315	0.00	29.886 
08:15	57.3	57.3	57.3	78	50.5	0	1	315	0.00	29.890 
08:20	58.1	58.1	58.1	75	50.2	0	2	292	0.00	29.890 
08:25	58.9	58.9	58.9	73	50.3	0	2	292	0.00	29.890 
08:30	59.5	59.5	59.5	71	50.1	0	1	292	0.00	29.888 
08:35	60.1	60.1	60.1	71	50.7	0	2	292	0.00	29.888 
08:40	60.7	60.7	60.7	69	50.5	0	2	292	0.00	29.888 
08:45	61.3	61.3	61.3	68	50.6	0	2	202	0.00	29.883 
08:50	61.8	61.8	61.8	65	49.9	1	3	225	0.00	29.883 
08:55	62.0	62.0	62.0	65	50.1	1	2	270	0.00	29.883 
09:00	62.4	62.4	62.4	65	50.5	1	2	270	0.00	29.886 
09:05	62.6	62.6	62.6	62	49.4	1	3	292	0.00	29.886 
09:10	62.9	62.9	62.9	61	49.2	1	4	292	0.00	29.886 
09:15	63.2	63.2	63.2	58	48.2	1	5	248	0.00	29.890 
09:20	63.5	63.5	63.5	58	48.5	1	4	270	0.00	29.890 
09:25	63.7	63.7	63.7	56	47.7	1	4	270	0.00	29.890 
09:30	64.0	64.0	64.0	57	48.5	1	3	270	0.00	29.887 
09:35	64.5	64.5	64.5	58	49.4	1	3	270	0.00	29.887 
09:40	64.8	64.8	64.8	55	48.2	1	4	270	0.00	29.887 
09:45	65.2	65.2	65.2	55	48.6	1	4	248	0.00	29.880 
09:50	65.5	65.5	65.5	54	48.4	1	3	248	0.00	29.880 
09:55	66.0	66.0	66.0	54	48.9	1	4	270	0.00	29.880 
10:00	66.1	66.1	66.1	54	49.0	1	3	270	0.00	29.884 
10:05	66.4	66.4	66.4	55	49.7	1	5	270	0.00	29.884 
10:10	66.8	66.8	66.8	52	48.6	2	5	270	0.00	29.884 
10:15	66.9	66.9	66.9	53	49.2	1	3	292	0.00	29.890 
10:20	67.6	67.6	67.6	52	49.3	1	5	248	0.00	29.890 
10:25	67.9	67.9	67.9	54	50.6	1	3	225	0.00	29.890 
10:30	67.9	67.9	67.9	52	49.6	1	3	248	0.00	29.900 
10:35	67.3	67.3	67.3	52	49.1	1	3	248	0.00	29.900 
10:40	66.6	66.6	66.6	54	49.4	1	2	248	0.00	29.900 
10:45	66.6	66.6	66.6	54	49.4	1	3	248	0.00	29.899 
10:50	66.4	66.4	66.4	52	48.2	2	5	248	0.00	29.899 
10:55	66.1	66.1	66.1	52	48.0	1	4	248	0.00	29.899 
11:00	65.6	65.6	65.6	54	48.5	1	3	270	0.00	29.907 
11:05	65.2	65.2	65.2	55	48.6	1	3	270	0.00	29.907 
11:10	64.8	64.8	64.8	55	48.2	1	3	270	0.00	29.907 
11:15	64.8	64.8	64.8	56	48.7	0	2	248	0.00	29.904 
11:20	65.0	65.0	65.0	57	49.4	0	2	248	0.00	29.904 
11:25	65.2	65.2	65.2	56	49.1	1	3	248	0.00	29.904 
11:30	65.5	65.5	65.5	55	48.9	1	3	248	0.00	29.895 
11:35	65.8	65.8	65.8	56	49.7	1	3	248	0.00	29.895 
11:40	66.3	66.3	66.3	54	49.1	1	3	248	0.00	29.895 
11:45	66.6	66.6	66.6	55	49.9	1	3	248	0.00	29.888 
11:50	66.6	66.6	66.6	54	49.4	1	5	270	0.00	29.888 
11:55	66.6	66.6	66.6	53	48.9	1	4	270	0.00	29.888 
12:00	66.8	66.8	66.8	54	49.6	1	4	248	0.00	29.878 
12:05	66.9	66.9	66.9	53	49.2	1	3	248	0.00	29.878 
12:10	67.6	67.6	67.6	52	49.3	2	5	248	0.00	29.878 
12:15	68.3	68.3	68.3	51	49.5	1	3	270	0.00	29.880 
12:20	68.9	68.9	68.9	48	48.4	2	4	248	0.00	29.880 
12:25	69.6	69.6	69.6	49	49.6	2	4	270	0.00	29.880 
12:30	70.1	70.1	70.1	47	48.9	2	5	248	0.00	29.876 
12:35	70.3	70.3	70.3	47	49.1	2	4	270	0.00	29.876 
12:40	69.9	69.9	69.9	42	45.8	2	5	248	0.00	29.876 
12:45	69.8	69.8	69.8	42	45.7	1	4	248	0.00	29.866 
12:50	69.8	69.8	69.8	41	45.0	1	5	248	0.00	29.866 
12:55	70.3	70.3	70.3	36	42.1	3	5	270	0.00	29.866 
13:00	70.4	70.4	70.4	38	43.6	2	5	248	0.00	29.860 
13:05	70.4	70.4	70.4	36	42.2	2	5	270	0.00	29.860 
13:10	70.9	70.9	70.9	39	44.7	1	5	270	0.00	29.860 
13:15	71.5	71.5	71.5	39	45.2	2	6	248	0.00	29.855 
13:20	71.8	71.8	71.8	39	45.5	3	5	270	0.00	29.855 
13:25	71.3	71.3	71.3	40	45.7	2	6	270	0.00	29.855 
13:30	71.3	71.3	71.3	40	45.7	2	4	248	0.00	29.848 
13:35	71.3	71.3	71.3	36	43.0	2	4	248	0.00	29.848 
13:40	71.6	71.6	71.6	38	44.6	2	4	248	0.00	29.848 
13:45	72.0	72.0	72.0	36	43.6	2	4	270	0.00	29.844 
13:50	71.6	71.6	71.6	37	43.9	2	4	270	0.00	29.844 
13:55	71.1	71.1	71.1	39	44.9	2	5	248	0.00	29.844 
14:00	70.8	70.8	70.8	40	45.3	1	3	248	0.00	29.839 
14:05	71.3	71.3	71.3	41	46.4	1	5	248	0.00	29.839 
14:10	72.0	72.0	72.0	38	45.0	1	4	270	0.00	29.839 
14:15	72.3	72.3	72.3	40	46.6	1	4	270	0.00	29.827 
14:20	72.5	72.5	72.5	37	44.7	2	5	270	0.00	29.827 
14:25	72.8	72.8	72.8	34	42.8	2	4	270	0.00	29.827 
14:30	73.0	73.0	73.0	32	41.4	2	6	270	0.00	29.826 
14:35	73.2	73.2	73.2	34	43.1	2	4	270	0.00	29.826 
14:40	73.0	73.0	73.0	31	40.6	1	3	270	0.00	29.826 
14:45	73.2	73.2	73.2	33	42.4	1	3	270	0.00	29.824 
14:50	73.3	73.3	73.3	33	42.4	1	4	248	0.00	29.824 
14:55	73.3	73.3	73.3	34	43.2	1	4	248	0.00	29.824 
15:00	73.3	73.3	73.3	34	43.2	1	2	270	0.00	29.816 
15:05	73.2	73.2	73.2	32	41.6	1	3	270	0.00	29.816 
15:10	73.0	73.0	73.0	32	41.4	1	3	248	0.00	29.816 
15:15	72.8	72.8	72.8	34	42.8	0	2	248	0.00	29.816 
15:20	72.8	72.8	72.8	34	42.8	1	3	248	0.00	29.816 
15:25	72.7	72.7	72.7	34	42.7	1	3	248	0.00	29.816 
15:30	72.5	72.5	72.5	33	41.7	1	2	248	0.00	29.814 
15:35	72.7	72.7	72.7	32	41.1	1	2	248	0.00	29.814 
15:40	73.2	73.2	73.2	38	46.1	0	2	248	0.00	29.814 
15:45	74.0	74.0	74.0	34	43.8	1	5	22	0.00	29.801 
15:50	74.4	74.4	74.4	30	40.9	2	3	248	0.00	29.801 
15:55	73.9	73.9	73.9	30	40.5	2	4	270	0.00	29.801 
16:00	74.0	74.0	74.0	31	41.4	0	2	270	0.00	29.798 
16:05	74.4	74.4	74.4	29	40.1	0	2	248	0.00	29.798 
16:10	74.7	74.7	74.7	32	42.9	0	2	248	0.00	29.798 
16:15	74.7	74.7	74.7	28	39.4	2	3	248	0.00	29.791 
16:20	74.7	74.7	74.7	31	42.0	1	5	270	0.00	29.791 
16:25	74.7	74.7	74.7	28	39.4	2	4	248	0.00	29.791 
16:30	74.4	74.4	74.4	31	41.8	1	4	270	0.00	29.787 
16:35	74.2	74.2	74.2	28	39.0	1	2	270	0.00	29.787 
16:40	73.7	73.7	73.7	29	39.5	1	4	248	0.00	29.787 
16:45	73.3	73.3	73.3	29	39.1	1	3	248	0.00	29.785 
16:50	73.3	73.3	73.3	31	40.8	0	4	248	0.00	29.785 
16:55	73.2	73.2	73.2	29	39.0	1	2	248	0.00	29.785 
17:00	73.2	73.2	73.2	30	39.9	0	1	248	0.00	29.783 
17:05	72.8	72.8	72.8	30	39.5	0	1	248	0.00	29.783 
17:10	72.8	72.8	72.8	33	42.0	0	1	248	0.00	29.783 
17:15	73.3	73.3	73.3	32	41.6	0	2	248	0.00	29.784 
17:20	73.9	73.9	73.9	34	43.7	0	2	248	0.00	29.784 
17:25	74.6	74.6	74.6	30	41.1	0	2	248	0.00	29.784 
17:30	75.3	75.3	77.0	29	40.8	1	3	248	0.00	29.777 
17:35	75.6	75.6	77.2	31	42.8	0	1	270	0.00	29.777 
17:40	76.1	76.1	77.4	31	43.3	0	1	270	0.00	29.777 
17:45	76.5	76.5	77.3	28	41.0	1	2	270	0.00	29.773 
17:50	76.5	76.5	77.3	27	40.0	1	2	270	0.00	29.773 
17:55	76.0	76.0	77.1	27	39.6	1	2	270	0.00	29.773 
18:00	75.8	75.8	77.1	28	40.4	0	2	270	0.00	29.769 
18:05	75.8	75.8	77.3	31	43.0	0	3	270	0.00	29.769 
18:10	75.4	75.4	76.8	27	39.1	1	4	270	0.00	29.769 
18:15	75.3	75.3	77.0	30	41.7	1	2	270	0.00	29.768 
18:20	75.1	75.1	76.9	29	40.7	1	3	248	0.00	29.768 
18:25	74.7	74.7	74.7	28	39.4	1	3	292	0.00	29.768 
18:30	74.9	74.9	74.9	31	42.2	0	1	292	0.00	29.766 
18:35	74.9	74.9	74.9	30	41.4	1	4	270	0.00	29.766 
18:40	74.7	74.7	74.7	28	39.4	1	3	270	0.00	29.766 
18:45	74.6	74.6	74.6	30	41.1	1	2	270	0.00	29.763 
18:50	74.6	74.6	74.6	30	41.1	1	3	270	0.00	29.763 
18:55	74.4	74.4	74.4	30	40.9	1	3	270	0.00	29.763 
19:00	74.0	74.0	74.0	31	41.4	0	3	270	0.00	29.761 
19:05	73.7	73.7	73.7	33	42.8	0	1	270	0.00	29.761 
19:10	73.3	73.3	73.3	32	41.6	0	1	270	0.00	29.761 
19:15	73.2	73.2	73.2	34	43.1	0	1	270	0.00	29.748 
19:20	73.2	73.2	73.2	35	43.9	0	0	---	0.00	29.748 
19:25	73.2	73.2	73.2	36	44.6	0	0	---	0.00	29.748 
19:30	73.2	73.2	73.2	35	43.9	0	0	---	0.00	29.746 
19:35	73.2	73.2	73.2	37	45.4	0	0	---	0.00	29.746 
19:40	73.0	73.0	73.0	36	44.5	0	1	270	0.00	29.746 
19:45	72.8	72.8	72.8	34	42.8	0	1	270	0.00	29.746 
19:50	72.8	72.8	72.8	33	42.0	0	1	270	0.00	29.746 
19:55	73.0	73.0	73.0	35	43.7	0	1	270	0.00	29.746 
20:00	73.0	73.0	73.0	34	43.0	0	1	270	0.00	29.743 
20:05	72.8	72.8	72.8	36	44.3	0	0	---	0.00	29.743 
20:10	72.7	72.7	72.7	35	43.5	0	1	270	0.00	29.743 
20:15	72.5	72.5	72.5	36	44.0	0	1	270	0.00	29.735 
20:20	72.3	72.3	72.3	38	45.3	0	0	---	0.00	29.735 
20:25	72.0	72.0	72.0	39	45.7	0	0	---	0.00	29.735 
20:30	71.6	71.6	71.6	40	46.0	0	0	---	0.00	29.734 
20:35	71.1	71.1	71.1	42	46.8	0	0	---	0.00	29.734 
20:40	70.6	70.6	70.6	42	46.4	0	0	---	0.00	29.734 
20:45	70.1	70.1	70.1	43	46.6	0	0	---	0.00	29.731 
20:50	69.6	69.6	69.6	44	46.7	0	0	---	0.00	29.731 
20:55	68.9	68.9	68.9	45	46.7	0	0	---	0.00	29.731 
21:00	68.4	68.4	68.4	46	46.8	0	0	---	0.00	29.731 
21:05	67.8	67.8	67.8	47	46.8	0	0	---	0.00	29.731 
21:10	67.1	67.1	67.1	50	47.8	0	0	---	0.00	29.731 
21:15	66.4	66.4	66.4	50	47.2	0	0	---	0.00	29.730 
21:20	65.8	65.8	65.8	51	47.2	0	0	---	0.00	29.730 
21:25	65.3	65.3	65.3	52	47.2	0	0	---	0.00	29.730 
21:30	64.8	64.8	64.8	53	47.3	0	0	---	0.00	29.730 
21:35	64.3	64.3	64.3	55	47.8	0	0	---	0.00	29.730 
21:40	63.9	63.9	63.9	55	47.4	0	0	---	0.00	29.730 
21:45	63.5	63.5	63.5	56	47.5	0	0	---	0.00	29.728 
21:50	63.2	63.2	63.2	58	48.2	0	0	---	0.00	29.728 
21:55	62.7	62.7	62.7	59	48.2	0	0	---	0.00	29.728 
22:00	62.3	62.3	62.3	61	48.7	0	0	---	0.00	29.728 
22:05	61.8	61.8	61.8	62	48.6	0	0	---	0.00	29.728 
22:10	61.3	61.3	61.3	63	48.6	0	0	---	0.00	29.728 
22:15	61.0	61.0	61.0	63	48.3	0	0	---	0.00	29.732 
22:20	60.9	60.9	60.9	64	48.6	0	0	---	0.00	29.732 
22:25	60.5	60.5	60.5	65	48.7	0	0	---	0.00	29.732 
22:30	60.1	60.1	60.1	66	48.7	0	0	---	0.00	29.733 
22:35	59.8	59.8	59.8	67	48.8	0	0	---	0.00	29.733 
22:40	59.5	59.5	59.5	67	48.5	0	0	---	0.00	29.733 
22:45	59.3	59.3	59.3	67	48.3	0	0	---	0.00	29.743 
22:50	59.2	59.2	59.2	67	48.2	0	0	---	0.00	29.743 
22:55	59.2	59.2	59.2	69	49.0	0	0	---	0.00	29.743 
23:00	59.0	59.0	59.0	67	48.1	0	0	---	0.00	29.744 
23:05	58.9	58.9	58.9	67	48.0	0	0	---	0.00	29.744 
23:10	58.7	58.7	58.7	67	47.8	0	0	---	0.00	29.744 
23:15	58.6	58.6	58.6	67	47.7	0	0	---	0.00	29.746 
23:20	58.4	58.4	58.4	67	47.5	0	0	---	0.00	29.746 
23:25	58.3	58.3	58.3	68	47.8	0	0	---	0.00	29.746 
23:30	58.1	58.1	58.1	69	48.0	0	0	---	0.00	29.750 
23:35	58.1	58.1	58.1	71	48.7	0	0	---	0.00	29.750 
23:40	58.1	58.1	58.1	71	48.7	0	0	---	0.00	29.750 
23:45	58.1	58.1	58.1	70	48.4	0	0	---	0.00	29.752 
23:50	58.1	58.1	58.1	71	48.7	0	0	---	0.00	29.752 
23:55	58.0	58.0	58.0	71	48.6	0	0	---	0.00	29.752 

CoCoRaHS
IN-AL-39
A2 Web Hosting
Creative Commons License
GoDaddy
search engine by freefind advanced

loaded 2018-11-21 01:41:46 • last modified 2010-11-18 10:43:29
Privacy PolicyDisclaimer
• wx.awcolley.com is powered by PmWiki v.2002016 •
• all content (unless otherwise noted) © 2018 A W Colley